Time;durP1;ratioP1;P1;durP2;ratioP2;P2;SDS_P1;SDS_P2;PMS_P1;PMS_P2;Temp;Humidity;BMP_temperature;BMP_pressure;BME280_temperature;BME280_humidity;BME280_pressure;Samples;Min_cycle;Max_cycle;Signal;HPM_P1;HPM_P2
2021/08/13 00:02:26;;;;;;;7.80;6.30;;;17.60;99.90;;;;;;5030030;28;20607;-90
2021/08/13 00:04:54;;;;;;;6.22;5.63;;;17.60;99.90;;;;;;5030999;28;20194;-87
2021/08/13 00:07:21;;;;;;;8.52;6.45;;;17.60;99.90;;;;;;5031296;28;20210;-87
2021/08/13 00:09:48;;;;;;;7.47;6.68;;;17.60;99.90;;;;;;5031141;28;20210;-87
2021/08/13 00:12:15;;;;;;;7.57;6.05;;;17.60;99.90;;;;;;5030580;28;20230;-82
2021/08/13 00:14:42;;;;;;;8.48;6.60;;;17.50;99.90;;;;;;5030814;28;20202;-81
2021/08/13 00:17:08;;;;;;;8.73;6.82;;;17.50;99.90;;;;;;5030441;28;20218;-85
2021/08/13 00:19:35;;;;;;;6.95;5.90;;;17.50;99.90;;;;;;5026593;28;20206;-89
2021/08/13 00:22:03;;;;;;;7.32;6.38;;;17.40;99.90;;;;;;5011066;28;20496;-88
2021/08/13 00:24:30;;;;;;;7.03;6.32;;;17.40;99.90;;;;;;5012114;28;20794;-88
2021/08/13 00:26:57;;;;;;;7.25;6.15;;;17.40;99.90;;;;;;5010660;28;20212;-88
2021/08/13 00:29:24;;;;;;;6.78;6.05;;;17.40;99.90;;;;;;5011875;28;20299;-87
2021/08/13 00:31:51;;;;;;;7.13;6.43;;;17.30;99.90;;;;;;5009304;28;20199;-88
2021/08/13 00:34:18;;;;;;;6.32;5.72;;;17.30;99.90;;;;;;5026891;28;20545;-88
2021/08/13 00:36:44;;;;;;;7.25;6.55;;;17.30;99.90;;;;;;5032774;28;20218;-83
2021/08/13 00:39:13;;;;;;;7.38;6.68;;;17.30;99.90;;;;;;5024442;28;20506;-84
2021/08/13 00:41:39;;;;;;;6.75;6.05;;;17.20;99.90;;;;;;5011783;28;20195;-82
2021/08/13 00:44:07;;;;;;;6.38;5.72;;;17.20;99.90;;;;;;5013927;28;20226;-79
2021/08/13 00:46:34;;;;;;;6.15;5.55;;;17.20;99.90;;;;;;5020279;28;20238;-89
2021/08/13 00:49:00;;;;;;;8.20;6.57;;;17.20;99.90;;;;;;5031682;28;20194;-83
2021/08/13 00:51:28;;;;;;;7.20;6.50;;;17.20;99.90;;;;;;5031634;28;20584;-89
2021/08/13 00:53:55;;;;;;;7.03;6.32;;;17.10;99.90;;;;;;5033005;28;20222;-89
2021/08/13 00:56:24;;;;;;;7.80;7.05;;;17.10;99.90;;;;;;5030906;28;20221;-88
2021/08/13 00:58:51;;;;;;;7.95;6.78;;;17.10;99.90;;;;;;5031676;28;20241;-85
2021/08/13 01:01:20;;;;;;;8.15;7.35;;;17.10;99.90;;;;;;5031655;28;20198;-81
2021/08/13 01:03:47;;;;;;;10.23;8.63;;;17.00;99.90;;;;;;5021718;28;20214;-84
2021/08/13 01:06:14;;;;;;;9.90;8.48;;;17.10;99.90;;;;;;5029814;28;20214;-82
2021/08/13 01:08:42;;;;;;;9.20;8.20;;;17.00;99.90;;;;;;5031610;28;20194;-81
2021/08/13 01:11:17;;;;;;;7.40;6.70;;;17.00;99.90;;;;;;5031468;28;20623;-81
2021/08/13 01:13:53;;;;;;;8.27;7.47;;;17.00;99.90;;;;;;5031169;28;20210;-85
2021/08/13 01:16:21;;;;;;;8.90;8.00;;;17.00;99.90;;;;;;5032262;28;20205;-80
2021/08/13 01:18:53;;;;;;;9.35;8.32;;;16.90;99.90;;;;;;5032500;28;20198;-88
2021/08/13 01:21:29;;;;;;;10.38;9.00;;;16.90;99.90;;;;;;5032615;28;20203;-86
2021/08/13 01:24:02;;;;;;;9.82;8.82;;;16.90;99.90;;;;;;5031314;28;20203;-82
2021/08/13 01:26:33;;;;;;;10.15;8.85;;;16.90;99.90;;;;;;5031402;28;20309;-88
2021/08/13 01:29:18;;;;;;;11.73;9.85;;;16.90;99.90;;;;;;5032015;28;20400;-89
2021/08/13 01:31:51;;;;;;;12.57;9.90;;;16.90;99.90;;;;;;5015384;28;20215;-88
2021/08/13 01:34:20;;;;;;;12.18;9.52;;;16.80;99.90;;;;;;5013711;28;20220;-88
2021/08/13 01:36:50;;;;;;;11.77;9.02;;;16.80;99.90;;;;;;5019734;28;20881;-89
2021/08/13 01:39:17;;;;;;;9.05;8.13;;;16.80;99.90;;;;;;5032993;28;20202;-89
2021/08/13 01:41:45;;;;;;;8.68;7.78;;;16.80;99.90;;;;;;5045838;28;20202;-89
2021/08/13 01:44:13;;;;;;;10.05;9.07;;;16.80;99.90;;;;;;5038538;28;20203;-82
2021/08/13 01:46:42;;;;;;;9.75;8.75;;;16.70;99.90;;;;;;5012144;28;20630;-87
2021/08/13 01:49:10;;;;;;;8.77;7.80;;;16.70;99.90;;;;;;5013170;28;20215;-83
2021/08/13 01:51:38;;;;;;;9.00;8.07;;;16.70;99.90;;;;;;5017599;28;20234;-84
2021/08/13 01:54:06;;;;;;;12.80;11.10;;;16.70;99.90;;;;;;5032575;28;20230;-80
2021/08/13 01:56:33;;;;;;;12.27;10.57;;;16.70;99.90;;;;;;5032842;28;20199;-85
2021/08/13 01:59:02;;;;;;;11.48;9.98;;;16.70;99.90;;;;;;5030913;28;20191;-86
2021/08/13 02:01:29;;;;;;;11.18;9.60;;;16.70;99.90;;;;;;5030578;28;20210;-82
2021/08/13 02:03:57;;;;;;;11.65;9.90;;;16.70;99.90;;;;;;5032533;28;20202;-88
2021/08/13 02:06:25;;;;;;;11.18;9.98;;;16.70;99.90;;;;;;5031578;28;20195;-88
2021/08/13 02:08:54;;;;;;;11.32;9.35;;;16.70;99.90;;;;;;5030036;28;20207;-85
2021/08/13 02:11:22;;;;;;;10.65;8.82;;;16.60;99.90;;;;;;5029341;28;20226;-81
2021/08/13 02:13:49;;;;;;;10.77;9.55;;;16.60;99.90;;;;;;5015218;28;20227;-81
2021/08/13 02:16:22;;;;;;;13.30;9.65;;;16.60;99.90;;;;;;5009519;28;20207;-80
2021/08/13 02:18:54;;;;;;;11.75;9.63;;;16.60;99.90;;;;;;5010597;28;20192;-82
2021/08/13 02:21:22;;;;;;;10.52;9.43;;;16.60;99.90;;;;;;5021616;28;20549;-81
2021/08/13 02:23:49;;;;;;;10.02;9.02;;;16.60;99.90;;;;;;5030031;28;20198;-80
2021/08/13 02:26:17;;;;;;;13.07;10.95;;;16.60;99.90;;;;;;5030711;28;20210;-85
2021/08/13 02:28:44;;;;;;;11.57;9.73;;;16.60;99.90;;;;;;5023820;28;20218;-86
2021/08/13 02:31:11;;;;;;;12.35;10.75;;;16.60;99.90;;;;;;5011204;28;20199;-88
2021/08/13 02:33:37;;;;;;;10.30;9.20;;;16.50;99.90;;;;;;5010217;28;20223;-88
2021/08/13 02:36:10;;;;;;;15.70;12.30;;;16.50;99.90;;;;;;5010011;28;20210;-88
2021/08/13 02:38:46;;;;;;;11.85;10.30;;;16.50;99.90;;;;;;5011061;28;20202;-87
2021/08/13 02:41:14;;;;;;;12.40;10.00;;;16.50;99.90;;;;;;5028001;28;20206;-87
2021/08/13 02:43:48;;;;;;;11.35;10.05;;;16.50;99.90;;;;;;5040895;28;20214;-86
2021/08/13 02:46:16;;;;;;;12.23;9.32;;;16.50;99.90;;;;;;5014769;28;20284;-88
2021/08/13 02:48:43;;;;;;;10.75;9.40;;;16.40;99.90;;;;;;5011832;28;20199;-88
2021/08/13 02:51:15;;;;;;;12.63;10.65;;;16.40;99.90;;;;;;5012353;28;20196;-89
2021/08/13 02:53:45;;;;;;;14.98;11.38;;;16.40;99.90;;;;;;5021555;28;20234;-88
2021/08/13 02:56:14;;;;;;;10.70;9.60;;;16.40;99.90;;;;;;5031139;28;20583;-88
2021/08/13 02:58:45;;;;;;;18.58;13.93;;;16.30;99.90;;;;;;5032808;28;20315;-84
2021/08/13 03:01:15;;;;;;;15.00;11.77;;;16.30;99.90;;;;;;5024283;28;20203;-85
2021/08/13 03:03:42;;;;;;;12.73;11.32;;;16.30;99.90;;;;;;5025223;28;20195;-86
2021/08/13 03:06:13;;;;;;;13.95;11.70;;;16.30;99.90;;;;;;5014085;28;20203;-84
2021/08/13 03:08:41;;;;;;;15.85;11.90;;;16.20;99.90;;;;;;5031376;28;20194;-81
2021/08/13 03:11:10;;;;;;;12.48;10.75;;;16.20;99.90;;;;;;5031761;28;20222;-87
2021/08/13 03:13:38;;;;;;;15.73;12.02;;;16.20;99.90;;;;;;5032022;28;20223;-83
2021/08/13 03:16:08;;;;;;;16.85;13.82;;;16.20;99.90;;;;;;5015490;28;20196;-87
2021/08/13 03:18:35;;;;;;;16.60;12.63;;;16.10;99.90;;;;;;5031118;28;20214;-84
2021/08/13 03:21:03;;;;;;;16.75;13.60;;;16.10;99.90;;;;;;5019212;28;20215;-87
2021/08/13 03:23:30;;;;;;;15.95;12.15;;;16.10;99.90;;;;;;5010125;28;20603;-87
2021/08/13 03:25:57;;;;;;;15.32;12.27;;;16.10;99.90;;;;;;5009977;28;20210;-83
2021/08/13 03:28:24;;;;;;;15.02;11.82;;;16.10;99.90;;;;;;5009623;28;20207;-81
2021/08/13 03:30:51;;;;;;;13.48;10.70;;;16.10;99.90;;;;;;5021652;28;20226;-84
2021/08/13 03:33:19;;;;;;;18.83;13.30;;;16.10;99.90;;;;;;5029561;28;20210;-81
2021/08/13 03:35:47;;;;;;;17.42;13.50;;;16.20;99.90;;;;;;5029651;28;20207;-80
2021/08/13 03:38:14;;;;;;;15.23;12.75;;;16.20;99.90;;;;;;5027674;28;20210;-82
2021/08/13 03:40:41;;;;;;;14.70;12.00;;;16.20;99.90;;;;;;5013041;28;20299;-85
2021/08/13 03:43:08;;;;;;;16.50;11.75;;;16.20;99.90;;;;;;5009270;28;20210;-88
2021/08/13 03:45:35;;;;;;;15.25;12.55;;;16.20;99.90;;;;;;5008217;28;20318;-87
2021/08/13 03:48:01;;;;;;;17.65;13.55;;;16.20;99.90;;;;;;5010598;28;20199;-81
2021/08/13 03:50:29;;;;;;;15.70;12.85;;;16.20;99.90;;;;;;5011037;28;20219;-83
2021/08/13 03:52:56;;;;;;;17.38;12.88;;;16.20;99.90;;;;;;5010072;28;20217;-82
2021/08/13 03:55:23;;;;;;;15.50;12.70;;;16.20;99.90;;;;;;5008821;28;20238;-81
2021/08/13 03:57:50;;;;;;;16.77;13.38;;;16.20;99.90;;;;;;5010412;28;20218;-81
2021/08/13 04:00:17;;;;;;;13.15;11.32;;;16.20;99.90;;;;;;5010940;28;20604;-88
2021/08/13 04:02:44;;;;;;;19.52;13.10;;;16.20;99.90;;;;;;5009320;28;20203;-86
2021/08/13 04:05:12;;;;;;;16.15;12.60;;;16.20;99.90;;;;;;5008925;28;20199;-85
2021/08/13 04:07:40;;;;;;;17.48;13.18;;;16.20;99.90;;;;;;5028871;28;20831;-84
2021/08/13 04:10:08;;;;;;;14.13;11.57;;;16.20;99.90;;;;;;5028369;28;20198;-87
2021/08/13 04:12:34;;;;;;;14.02;11.30;;;16.20;99.90;;;;;;5029438;28;20223;-80
2021/08/13 04:15:01;;;;;;;13.80;11.90;;;16.20;99.90;;;;;;5028437;28;20221;-86
2021/08/13 04:17:28;;;;;;;15.45;11.85;;;16.20;99.90;;;;;;5029861;28;20222;-86
2021/08/13 04:19:55;;;;;;;12.98;11.00;;;16.20;99.90;;;;;;5029724;28;20199;-87
2021/08/13 04:22:22;;;;;;;15.30;11.48;;;16.20;99.90;;;;;;5010509;28;20211;-87
2021/08/13 04:24:52;;;;;;;14.98;11.18;;;16.20;99.90;;;;;;5011394;28;20243;-87
2021/08/13 04:27:19;;;;;;;15.52;11.63;;;16.20;99.90;;;;;;5011780;28;20222;-88
2021/08/13 04:29:46;;;;;;;17.02;12.00;;;16.20;99.90;;;;;;5010174;28;20219;-81
2021/08/13 04:32:13;;;;;;;17.00;12.13;;;16.20;99.90;;;;;;5009987;28;20207;-82
2021/08/13 04:34:39;;;;;;;16.58;11.48;;;16.20;99.90;;;;;;5009879;28;20341;-83
2021/08/13 04:37:06;;;;;;;14.13;11.77;;;16.20;99.90;;;;;;5009883;28;20218;-83
2021/08/13 04:39:33;;;;;;;14.38;11.48;;;16.20;99.90;;;;;;5008422;28;20211;-87
2021/08/13 04:42:01;;;;;;;15.52;11.93;;;16.20;99.90;;;;;;5011584;28;20198;-87
2021/08/13 04:44:28;;;;;;;13.48;10.80;;;16.30;99.90;;;;;;5027691;28;20218;-87
2021/08/13 04:46:55;;;;;;;14.63;10.60;;;16.20;99.90;;;;;;5029212;28;20249;-87
2021/08/13 04:49:22;;;;;;;15.20;10.35;;;16.30;99.90;;;;;;5029818;28;20213;-86
2021/08/13 04:51:49;;;;;;;13.50;11.18;;;16.30;99.90;;;;;;5030478;28;20206;-86
2021/08/13 04:54:16;;;;;;;17.70;11.15;;;16.30;99.90;;;;;;5029755;28;20223;-87
2021/08/13 04:56:42;;;;;;;15.13;11.02;;;16.30;99.90;;;;;;5035338;28;20205;-84
2021/08/13 04:59:11;;;;;;;11.73;10.18;;;16.30;99.90;;;;;;5041063;28;20314;-84
2021/08/13 05:01:38;;;;;;;11.30;8.85;;;16.30;99.90;;;;;;5042335;28;20202;-84
2021/08/13 05:04:06;;;;;;;10.98;9.15;;;16.30;99.90;;;;;;5038112;28;20209;-86
2021/08/13 05:06:33;;;;;;;13.85;10.13;;;16.30;99.90;;;;;;5035798;28;20264;-85
2021/08/13 05:09:00;;;;;;;14.15;10.38;;;16.40;99.90;;;;;;5029739;28;20333;-83
2021/08/13 05:11:27;;;;;;;17.08;10.52;;;16.50;99.90;;;;;;5028664;28;20517;-85
2021/08/13 05:13:54;;;;;;;12.75;9.80;;;16.50;99.90;;;;;;5029339;28;20486;-84
2021/08/13 05:16:22;;;;;;;12.50;9.38;;;16.60;99.90;;;;;;5027835;28;20210;-84
2021/08/13 05:18:49;;;;;;;15.05;10.40;;;16.60;99.90;;;;;;5029507;28;20203;-85
2021/08/13 05:21:16;;;;;;;13.50;9.60;;;16.60;99.90;;;;;;5030722;28;20210;-83
2021/08/13 05:23:43;;;;;;;14.55;10.07;;;16.70;99.90;;;;;;5031909;28;20309;-82
2021/08/13 05:26:09;;;;;;;13.90;9.95;;;16.80;99.90;;;;;;5031570;28;20202;-84
2021/08/13 05:28:36;;;;;;;10.23;8.63;;;16.80;99.90;;;;;;5032621;28;20214;-83
2021/08/13 05:31:04;;;;;;;9.80;8.75;;;16.90;99.90;;;;;;5022984;28;20208;-86
2021/08/13 05:33:32;;;;;;;10.90;8.13;;;16.90;99.90;;;;;;5013177;28;20207;-84
2021/08/13 05:35:59;;;;;;;10.15;7.85;;;17.00;99.90;;;;;;5012744;28;20242;-87
2021/08/13 05:38:26;;;;;;;10.95;8.52;;;17.10;99.90;;;;;;5013283;28;20207;-87
2021/08/13 05:40:53;;;;;;;11.10;8.02;;;17.10;99.90;;;;;;5027690;28;20211;-85
2021/08/13 05:43:19;;;;;;;13.65;8.00;;;17.20;99.90;;;;;;5033229;28;20206;-87
2021/08/13 05:45:47;;;;;;;14.15;7.28;;;17.30;99.90;;;;;;5046160;28;20237;-88
2021/08/13 05:48:13;;;;;;;12.02;6.75;;;17.40;99.90;;;;;;5054555;28;20194;-89
2021/08/13 05:50:42;;;;;;;12.15;6.70;;;17.60;99.90;;;;;;5053777;28;20206;-85
2021/08/13 05:53:08;;;;;;;12.68;6.90;;;17.70;99.90;;;;;;5050600;28;20214;-86
2021/08/13 05:55:35;;;;;;;14.40;7.18;;;17.80;99.90;;;;;;5034552;28;20241;-86
2021/08/13 05:58:02;;;;;;;12.43;6.70;;;17.80;99.90;;;;;;5032567;28;20290;-89
2021/08/13 06:00:29;;;;;;;14.10;6.82;;;17.90;99.90;;;;;;5013636;28;20215;-88
2021/08/13 06:02:58;;;;;;;10.95;6.20;;;17.90;99.90;;;;;;5032191;28;20409;-89
2021/08/13 06:05:25;;;;;;;13.50;7.18;;;18.00;99.90;;;;;;5052627;28;20579;-87
2021/08/13 06:07:53;;;;;;;14.50;6.95;;;18.00;99.90;;;;;;5053647;28;20208;-88
2021/08/13 06:10:21;;;;;;;9.95;6.32;;;18.10;99.90;;;;;;5053014;28;20202;-86
2021/08/13 06:12:49;;;;;;;11.70;6.00;;;18.10;99.90;;;;;;5042419;28;20230;-89
2021/08/13 06:15:17;;;;;;;14.20;7.38;;;18.10;99.90;;;;;;5031946;28;20301;-85
2021/08/13 06:17:45;;;;;;;13.98;7.32;;;18.10;99.90;;;;;;5032528;28;20211;-89
2021/08/13 06:20:15;;;;;;;18.63;8.57;;;18.10;99.90;;;;;;5032012;28;20531;-90
2021/08/13 06:22:42;;;;;;;17.05;7.47;;;18.20;99.90;;;;;;5031731;28;20202;-90
2021/08/13 06:25:11;;;;;;;13.20;6.30;;;18.20;99.90;;;;;;5033929;28;20252;-86
2021/08/13 06:27:41;;;;;;;11.93;6.30;;;18.20;99.90;;;;;;5032046;28;20274;-92
2021/08/13 06:30:09;;;;;;;12.48;6.50;;;18.30;99.90;;;;;;5031568;28;20676;-91
2021/08/13 06:32:36;;;;;;;13.52;7.50;;;18.40;99.90;;;;;;5031668;28;20289;-90
2021/08/13 06:35:03;;;;;;;14.82;7.10;;;18.40;99.90;;;;;;5020988;28;20309;-88
2021/08/13 06:37:30;;;;;;;11.02;6.85;;;18.40;99.90;;;;;;5012110;28;20222;-85
2021/08/13 06:39:56;;;;;;;20.30;8.15;;;18.40;99.90;;;;;;5011786;28;20612;-87
2021/08/13 06:42:27;;;;;;;13.15;7.55;;;18.50;99.90;;;;;;5011416;28;20893;-93
2021/08/13 06:44:54;;;;;;;13.82;6.68;;;18.50;99.90;;;;;;5011029;28;20498;-92
2021/08/13 06:47:20;;;;;;;17.27;7.07;;;18.60;99.90;;;;;;5017781;28;20234;-92
2021/08/13 06:49:48;;;;;;;18.17;7.28;;;18.60;99.90;;;;;;5032726;28;20294;-80
2021/08/13 06:52:15;;;;;;;16.05;7.03;;;18.60;99.90;;;;;;5031419;28;20266;-85
2021/08/13 06:54:42;;;;;;;8.52;5.18;;;18.70;99.90;;;;;;5030975;28;20218;-90
2021/08/13 06:57:09;;;;;;;14.20;6.03;;;18.70;99.90;;;;;;5031540;28;20206;-92
2021/08/13 06:59:37;;;;;;;15.30;6.93;;;18.80;99.90;;;;;;5031265;28;20195;-87
2021/08/13 07:02:04;;;;;;;15.52;6.75;;;18.80;99.90;;;;;;5024038;28;20214;-91
2021/08/13 07:04:31;;;;;;;18.58;7.72;;;18.80;99.90;;;;;;5012598;28;20277;-88
2021/08/13 07:06:58;;;;;;;12.95;6.18;;;18.90;99.90;;;;;;5016289;28;20607;-88
2021/08/13 07:09:24;;;;;;;15.23;6.80;;;18.90;99.90;;;;;;5032619;28;20199;-84
2021/08/13 07:11:51;;;;;;;13.40;6.22;;;19.00;99.90;;;;;;5033721;28;20232;-87
2021/08/13 07:14:18;;;;;;;17.48;7.38;;;19.10;99.90;;;;;;5033788;28;20210;-81
2021/08/13 07:16:47;;;;;;;14.90;6.88;;;19.30;99.90;;;;;;5030818;28;20229;-83
2021/08/13 07:19:14;;;;;;;11.85;6.28;;;19.30;99.90;;;;;;5029899;28;20203;-84
2021/08/13 07:21:41;;;;;;;10.60;5.70;;;19.40;99.90;;;;;;5029608;28;20606;-91
2021/08/13 07:24:07;;;;;;;8.50;6.10;;;19.50;99.90;;;;;;5030898;28;20194;-89
2021/08/13 07:26:34;;;;;;;11.70;7.13;;;19.50;99.90;;;;;;5029691;28;20198;-88
2021/08/13 07:29:01;;;;;;;12.25;6.43;;;19.60;99.90;;;;;;5030291;28;20974;-87
2021/08/13 07:31:28;;;;;;;16.63;6.00;;;19.70;99.90;;;;;;5029501;28;20603;-81
2021/08/13 07:33:56;;;;;;;10.60;5.35;;;19.90;99.90;;;;;;5029519;28;20207;-89
2021/08/13 07:36:25;;;;;;;12.80;5.68;;;20.00;99.90;;;;;;5029229;28;20634;-84
2021/08/13 07:38:52;;;;;;;9.55;5.25;;;20.20;99.90;;;;;;5029361;28;20206;-92
2021/08/13 07:41:19;;;;;;;11.25;4.07;;;20.30;99.90;;;;;;5029093;28;20622;-82
2021/08/13 07:43:45;;;;;;;10.48;4.05;;;20.50;99.90;;;;;;5028483;28;20618;-82
2021/08/13 07:46:12;;;;;;;7.97;4.30;;;20.60;99.90;;;;;;5019422;28;20234;-86
2021/08/13 07:48:39;;;;;;;7.10;3.88;;;20.60;99.90;;;;;;5009798;28;20210;-89
2021/08/13 07:51:07;;;;;;;7.57;4.22;;;20.90;99.90;;;;;;5008491;28;20269;-84
2021/08/13 07:53:35;;;;;;;7.82;4.72;;;21.10;99.90;;;;;;5008371;28;20206;-85
2021/08/13 07:56:01;;;;;;;7.05;4.22;;;21.30;99.90;;;;;;5010301;28;20223;-88
2021/08/13 07:58:28;;;;;;;8.20;4.57;;;21.20;99.90;;;;;;5009986;28;20208;-93
2021/08/13 08:00:55;;;;;;;13.45;5.25;;;21.30;99.90;;;;;;5009613;28;20206;-86
2021/08/13 08:03:22;;;;;;;15.75;6.07;;;21.40;99.90;;;;;;5031249;28;20510;-92
2021/08/13 08:05:49;;;;;;;8.70;4.57;;;21.50;99.90;;;;;;5030911;28;20599;-88
2021/08/13 08:08:17;;;;;;;9.57;4.53;;;21.60;99.90;;;;;;5034674;28;20231;-90
2021/08/13 08:10:46;;;;;;;15.02;5.20;;;21.70;99.90;;;;;;5047379;28;20198;-92
2021/08/13 08:13:13;;;;;;;13.38;5.88;;;21.60;99.90;;;;;;5029179;28;20244;-90
2021/08/13 08:15:40;;;;;;;10.18;4.78;;;21.70;99.90;;;;;;5030641;28;20623;-89
2021/08/13 08:18:06;;;;;;;10.27;5.30;;;21.80;99.90;;;;;;5029194;28;20218;-89
2021/08/13 08:20:33;;;;;;;16.17;5.38;;;21.60;99.90;;;;;;5031072;28;20210;-88
2021/08/13 08:23:00;;;;;;;16.95;6.00;;;21.60;99.90;;;;;;5022093;28;20211;-91
2021/08/13 08:25:29;;;;;;;9.20;5.00;;;21.80;99.90;;;;;;5010813;28;20203;-86
2021/08/13 08:27:56;;;;;;;13.70;4.70;;;22.10;99.90;;;;;;5027346;28;20221;-89
2021/08/13 08:30:22;;;;;;;7.82;3.58;;;22.40;99.90;;;;;;5040202;28;20198;-92
2021/08/13 08:32:50;;;;;;;9.45;4.22;;;22.40;99.90;;;;;;5029713;28;20205;-86
2021/08/13 08:35:17;;;;;;;11.90;4.82;;;22.40;99.90;;;;;;5030004;28;20229;-88
2021/08/13 08:37:52;;;;;;;13.02;5.20;;;22.30;99.90;;;;;;5029012;28;20198;-89
2021/08/13 08:40:24;;;;;;;11.65;4.38;;;22.50;99.90;;;;;;5029174;28;20213;-87
2021/08/13 08:42:56;;;;;;;10.60;4.03;;;22.60;99.90;;;;;;5026153;28;20238;-90
2021/08/13 08:45:23;;;;;;;10.02;4.57;;;22.80;99.90;;;;;;5025824;28;20666;-85
2021/08/13 08:47:53;;;;;;;13.75;4.63;;;22.80;99.90;;;;;;5025713;28;20603;-84
2021/08/13 08:50:21;;;;;;;11.65;5.13;;;23.00;99.90;;;;;;5027433;28;20203;-87
2021/08/13 08:52:49;;;;;;;9.90;4.10;;;22.90;99.90;;;;;;5027456;28;20214;-92
2021/08/13 08:55:15;;;;;;;9.40;4.15;;;22.80;99.90;;;;;;5019371;28;20227;-82
2021/08/13 08:57:44;;;;;;;13.30;4.60;;;22.70;99.90;;;;;;5011606;28;20199;-85
2021/08/13 09:00:14;;;;;;;11.38;5.15;;;22.70;99.90;;;;;;5011947;28;20906;-81
2021/08/13 09:02:43;;;;;;;13.38;4.35;;;22.60;99.90;;;;;;5011836;28;20231;-85
2021/08/13 09:05:11;;;;;;;8.65;4.20;;;22.60;99.90;;;;;;5027696;28;20202;-83
2021/08/13 09:07:37;;;;;;;12.43;4.05;;;22.70;99.90;;;;;;5030986;28;20217;-84
2021/08/13 09:10:05;;;;;;;9.60;4.13;;;22.70;99.90;;;;;;5031767;28;20214;-90
2021/08/13 09:12:34;;;;;;;11.43;4.57;;;22.70;99.90;;;;;;5026454;28;20289;-87
2021/08/13 09:15:01;;;;;;;12.35;4.93;;;22.70;99.90;;;;;;5018582;28;20199;-92
2021/08/13 09:17:30;;;;;;;13.38;5.00;;;22.90;99.90;;;;;;5032658;28;20199;-88
2021/08/13 09:19:58;;;;;;;11.98;3.95;;;22.90;99.90;;;;;;5032928;28;20203;-90
2021/08/13 09:22:26;;;;;;;11.48;3.45;;;23.00;99.90;;;;;;5034528;28;20202;-89
2021/08/13 09:24:54;;;;;;;11.80;4.13;;;22.90;99.90;;;;;;5033726;28;20239;-88
2021/08/13 09:27:24;;;;;;;8.75;4.55;;;22.90;99.90;;;;;;5032932;28;20214;-88
2021/08/13 09:30:08;;;;;;;7.35;4.10;;;23.00;99.90;;;;;;5031239;28;20199;-90
2021/08/13 09:32:37;;;;;;;15.35;4.55;;;23.20;99.90;;;;;;5031623;28;20236;-89
2021/08/13 09:35:04;;;;;;;10.35;3.83;;;23.50;99.90;;;;;;5031519;28;20195;-84
2021/08/13 09:37:31;;;;;;;10.95;4.70;;;23.60;99.90;;;;;;5029527;28;20227;-87
2021/08/13 09:39:59;;;;;;;12.25;4.35;;;23.40;99.90;;;;;;5028601;28;20211;-90
2021/08/13 09:42:33;;;;;;;13.00;3.60;;;23.50;99.90;;;;;;5030805;28;20191;-91
2021/08/13 09:45:01;;;;;;;12.15;3.95;;;23.70;99.90;;;;;;5030856;28;20228;-89
2021/08/13 09:47:41;;;;;;;11.52;4.05;;;23.80;99.90;;;;;;5033492;28;20230;-91
2021/08/13 09:50:09;;;;;;;15.90;4.32;;;23.90;99.90;;;;;;5033652;28;20197;-84
2021/08/13 09:52:36;;;;;;;11.88;3.72;;;23.90;99.90;;;;;;5033331;28;20202;-85
2021/08/13 09:55:08;;;;;;;10.85;3.80;;;23.90;99.90;;;;;;5034346;28;20542;-83
2021/08/13 09:57:40;;;;;;;10.32;3.60;;;24.20;99.90;;;;;;5033102;28;20237;-85
2021/08/13 10:00:09;;;;;;;11.93;4.45;;;24.40;99.90;;;;;;5032663;28;20199;-84
2021/08/13 10:02:38;;;;;;;9.80;3.90;;;24.40;99.90;;;;;;5031648;28;20213;-83
2021/08/13 10:05:18;;;;;;;10.25;4.10;;;24.60;99.90;;;;;;5029866;28;20210;-87
2021/08/13 10:07:49;;;;;;;8.27;3.55;;;24.90;99.90;;;;;;5029918;28;20214;-94
2021/08/13 10:10:17;;;;;;;9.18;4.07;;;24.70;99.90;;;;;;5033321;28;20217;-88
2021/08/13 10:12:45;;;;;;;13.40;4.53;;;24.40;99.90;;;;;;5036370;28;20618;-83
2021/08/13 10:15:26;;;;;;;13.75;4.30;;;24.10;99.90;;;;;;5033978;28;20214;-83
2021/08/13 10:17:54;;;;;;;12.00;3.67;;;24.00;99.90;;;;;;5042253;28;20202;-89
2021/08/13 10:20:22;;;;;;;12.48;4.35;;;23.90;99.90;;;;;;5034769;28;20214;-83
2021/08/13 10:22:49;;;;;;;12.27;4.10;;;23.70;99.90;;;;;;5032316;28;20213;-79
2021/08/13 10:25:17;;;;;;;10.50;4.28;;;23.70;99.90;;;;;;5032353;28;20207;-90
2021/08/13 10:27:45;;;;;;;10.75;4.88;;;23.80;99.90;;;;;;5029665;28;20201;-90
2021/08/13 10:30:12;;;;;;;11.23;4.82;;;23.80;99.90;;;;;;5010482;28;20219;-85
2021/08/13 10:32:40;;;;;;;12.73;3.97;;;24.00;99.90;;;;;;5021715;28;20206;-82
2021/08/13 10:35:08;;;;;;;13.85;4.20;;;24.00;99.90;;;;;;5029874;28;20202;-85
2021/08/13 10:37:38;;;;;;;13.70;4.18;;;23.90;99.90;;;;;;5030033;28;20225;-86
2021/08/13 10:40:07;;;;;;;13.48;4.97;;;23.60;99.90;;;;;;5028072;28;20206;-85
2021/08/13 10:42:38;;;;;;;17.10;5.03;;;23.50;99.90;;;;;;5028260;28;20207;-83
2021/08/13 10:45:08;;;;;;;13.85;4.45;;;23.40;99.90;;;;;;5009270;28;20199;-85
2021/08/13 10:47:40;;;;;;;10.18;3.95;;;23.40;99.90;;;;;;5009125;28;20195;-83
2021/08/13 10:50:09;;;;;;;11.35;4.63;;;23.30;99.90;;;;;;5009911;28;20195;-87
2021/08/13 10:52:39;;;;;;;10.27;3.47;;;23.50;99.90;;;;;;5028557;28;20207;-89
2021/08/13 10:55:07;;;;;;;14.43;4.22;;;23.80;99.90;;;;;;5029906;28;20199;-83
2021/08/13 10:58:00;;;;;;;13.00;3.90;;;23.70;99.90;;;;;;5028938;28;20245;-85
2021/08/13 11:00:26;;;;;;;10.23;4.78;;;23.70;99.90;;;;;;5018767;28;20298;-91
2021/08/13 11:03:19;;;;;;;12.70;4.85;;;23.50;99.90;;;;;;5025676;28;20215;-87
2021/08/13 11:05:54;;;;;;;15.73;4.35;;;23.50;99.90;;;;;;5014827;28;20558;-83
2021/08/13 11:08:22;;;;;;;11.38;4.07;;;23.20;99.90;;;;;;5013071;28;20199;-87
2021/08/13 11:10:59;;;;;;;9.85;3.80;;;23.20;99.90;;;;;;5012817;28;20210;-86
2021/08/13 11:13:27;;;;;;;11.30;3.78;;;23.10;99.90;;;;;;5025655;28;20210;-89
2021/08/13 11:15:55;;;;;;;10.25;3.70;;;23.00;99.90;;;;;;5031179;28;20207;-87
2021/08/13 11:18:34;;;;;;;10.63;3.50;;;23.10;99.90;;;;;;5029547;28;20211;-89
2021/08/13 11:21:02;;;;;;;10.20;3.75;;;23.30;99.90;;;;;;5030297;28;20474;-80
2021/08/13 11:23:31;;;;;;;13.80;4.28;;;23.70;99.90;;;;;;5026846;28;20213;-80
2021/08/13 11:25:58;;;;;;;15.90;4.13;;;23.90;99.90;;;;;;5028553;28;20222;-82
2021/08/13 11:28:26;;;;;;;13.25;4.65;;;24.10;99.90;;;;;;5009035;28;20214;-81
2021/08/13 11:30:55;;;;;;;15.43;5.07;;;24.10;99.90;;;;;;5008393;28;20218;-82
2021/08/13 11:33:41;;;;;;;14.80;4.40;;;24.10;99.90;;;;;;5008269;28;20207;-84
2021/08/13 11:36:08;;;;;;;15.40;3.63;;;24.30;99.90;;;;;;5007951;28;20230;-82
2021/08/13 11:39:01;;;;;;;11.23;3.67;;;24.40;99.90;;;;;;5007501;28;20203;-82
2021/08/13 11:41:29;;;;;;;11.27;3.80;;;24.60;99.90;;;;;;5009535;28;20203;-85
2021/08/13 11:43:58;;;;;;;10.82;4.15;;;24.40;99.90;;;;;;5008865;28;20596;-88
2021/08/13 11:46:28;;;;;;;15.15;4.30;;;24.50;99.90;;;;;;5009461;28;20243;-83
2021/08/13 11:48:59;;;;;;;10.43;3.55;;;24.60;99.90;;;;;;5009584;28;20210;-86
2021/08/13 11:51:26;;;;;;;10.32;4.15;;;24.50;99.90;;;;;;5027927;28;20215;-85
2021/08/13 11:53:53;;;;;;;11.77;4.20;;;24.30;99.90;;;;;;5021254;28;20322;-88
2021/08/13 11:56:27;;;;;;;11.07;4.13;;;24.30;99.90;;;;;;5024299;28;20242;-78
2021/08/13 11:58:58;;;;;;;13.63;3.75;;;24.30;99.90;;;;;;5023267;28;20211;-87
2021/08/13 12:01:24;;;;;;;12.13;3.70;;;24.20;99.90;;;;;;5007791;28;20210;-88
2021/08/13 12:03:52;;;;;;;6.07;2.95;;;24.20;99.90;;;;;;5017696;28;20214;-90
2021/08/13 12:06:19;;;;;;;13.05;3.78;;;24.10;99.90;;;;;;5027305;28;20598;-82
2021/08/13 12:08:47;;;;;;;8.23;3.55;;;24.20;99.90;;;;;;5026802;28;20207;-84
2021/08/13 12:11:14;;;;;;;13.65;4.25;;;24.30;99.90;;;;;;5028243;28;20226;-87
2021/08/13 12:13:43;;;;;;;9.48;3.55;;;24.60;99.90;;;;;;5016368;28;20330;-81
2021/08/13 12:16:11;;;;;;;8.23;3.20;;;24.70;99.90;;;;;;5006225;28;20290;-80
2021/08/13 12:18:38;;;;;;;10.75;3.75;;;24.70;99.90;;;;;;5007680;28;20191;-84
2021/08/13 12:21:06;;;;;;;9.82;3.40;;;24.70;99.90;;;;;;5027553;28;20195;-84
2021/08/13 12:23:32;;;;;;;11.60;2.97;;;24.70;99.90;;;;;;5026511;28;20194;-80
2021/08/13 12:26:02;;;;;;;6.72;2.85;;;24.90;99.90;;;;;;5027240;28;20497;-88
2021/08/13 12:28:31;;;;;;;9.13;3.42;;;25.00;99.90;;;;;;5009962;28;20258;-90
2021/08/13 12:31:07;;;;;;;10.55;3.00;;;25.30;99.90;;;;;;5018923;28;20205;-89
2021/08/13 12:33:34;;;;;;;10.25;3.40;;;25.30;99.90;;;;;;5053124;28;20212;-84
2021/08/13 12:36:02;;;;;;;10.52;3.60;;;25.30;99.90;;;;;;5053522;28;20198;-86
2021/08/13 12:38:32;;;;;;;11.30;3.22;;;25.00;99.90;;;;;;5050017;28;20235;-85
2021/08/13 12:40:59;;;;;;;9.25;3.40;;;25.10;99.90;;;;;;5032822;28;20402;-85
2021/08/13 12:43:26;;;;;;;12.82;3.13;;;24.70;99.90;;;;;;5032650;28;20218;-86
2021/08/13 12:45:55;;;;;;;8.68;3.30;;;24.50;99.90;;;;;;5030720;28;20700;-84